sensor_id;sensor_type;location;lat;lon;timestamp;temperature;humidity
23089;DHT22;11713;48.506;8.966;2023-04-24T00:00:02;11.20;99.90
23089;DHT22;11713;48.506;8.966;2023-04-24T00:02:31;11.30;99.90
23089;DHT22;11713;48.506;8.966;2023-04-24T00:04:58;11.20;99.90
23089;DHT22;11713;48.506;8.966;2023-04-24T00:07:31;11.30;99.90
23089;DHT22;11713;48.506;8.966;2023-04-24T00:09:57;11.30;99.90
23089;DHT22;11713;48.506;8.966;2023-04-24T00:12:24;11.40;99.90
23089;DHT22;11713;48.506;8.966;2023-04-24T00:14:50;11.40;99.90
23089;DHT22;11713;48.506;8.966;2023-04-24T00:17:16;11.50;99.90
23089;DHT22;11713;48.506;8.966;2023-04-24T00:19:48;11.50;99.90
23089;DHT22;11713;48.506;8.966;2023-04-24T00:22:17;11.50;99.90
23089;DHT22;11713;48.506;8.966;2023-04-24T00:24:43;11.50;99.90
23089;DHT22;11713;48.506;8.966;2023-04-24T00:27:09;11.50;99.90
23089;DHT22;11713;48.506;8.966;2023-04-24T00:29:35;11.50;99.90
23089;DHT22;11713;48.506;8.966;2023-04-24T00:32:00;11.60;99.90
23089;DHT22;11713;48.506;8.966;2023-04-24T00:34:26;11.50;99.90
23089;DHT22;11713;48.506;8.966;2023-04-24T00:36:52;11.60;99.90
23089;DHT22;11713;48.506;8.966;2023-04-24T00:39:21;11.60;99.90
23089;DHT22;11713;48.506;8.966;2023-04-24T00:41:48;11.60;99.90
23089;DHT22;11713;48.506;8.966;2023-04-24T00:44:16;11.60;99.90
23089;DHT22;11713;48.506;8.966;2023-04-24T00:46:42;11.60;99.90
23089;DHT22;11713;48.506;8.966;2023-04-24T00:49:08;11.70;99.90
23089;DHT22;11713;48.506;8.966;2023-04-24T00:51:34;11.60;99.90
23089;DHT22;11713;48.506;8.966;2023-04-24T00:54:00;11.60;99.90
23089;DHT22;11713;48.506;8.966;2023-04-24T00:56:27;11.70;99.90
23089;DHT22;11713;48.506;8.966;2023-04-24T00:58:53;11.70;99.90
23089;DHT22;11713;48.506;8.966;2023-04-24T01:01:20;11.60;99.90
23089;DHT22;11713;48.506;8.966;2023-04-24T01:03:46;11.60;99.90
23089;DHT22;11713;48.506;8.966;2023-04-24T01:06:13;11.60;99.90
23089;DHT22;11713;48.506;8.966;2023-04-24T01:08:39;11.60;99.90
23089;DHT22;11713;48.506;8.966;2023-04-24T01:11:07;11.50;99.90
23089;DHT22;11713;48.506;8.966;2023-04-24T01:13:34;11.50;99.90
23089;DHT22;11713;48.506;8.966;2023-04-24T01:16:00;11.40;99.90
23089;DHT22;11713;48.506;8.966;2023-04-24T01:18:27;11.40;99.90
23089;DHT22;11713;48.506;8.966;2023-04-24T01:20:57;11.30;99.90
23089;DHT22;11713;48.506;8.966;2023-04-24T01:23:23;11.30;99.90
23089;DHT22;11713;48.506;8.966;2023-04-24T01:25:50;11.30;99.90
23089;DHT22;11713;48.506;8.966;2023-04-24T01:28:18;11.30;99.90
23089;DHT22;11713;48.506;8.966;2023-04-24T01:31:05;11.30;99.90
23089;DHT22;11713;48.506;8.966;2023-04-24T01:36:50;11.40;99.90
23089;DHT22;11713;48.506;8.966;2023-04-24T01:39:16;11.40;99.90
23089;DHT22;11713;48.506;8.966;2023-04-24T01:41:42;11.20;99.90
23089;DHT22;11713;48.506;8.966;2023-04-24T01:44:08;11.20;99.90
23089;DHT22;11713;48.506;8.966;2023-04-24T01:46:34;11.20;99.90
23089;DHT22;11713;48.506;8.966;2023-04-24T01:49:03;11.20;99.90
23089;DHT22;11713;48.506;8.966;2023-04-24T01:51:29;11.20;99.90
23089;DHT22;11713;48.506;8.966;2023-04-24T01:53:56;11.20;99.90
23089;DHT22;11713;48.506;8.966;2023-04-24T01:56:22;11.20;99.90
23089;DHT22;11713;48.506;8.966;2023-04-24T01:58:49;11.30;99.90
23089;DHT22;11713;48.506;8.966;2023-04-24T02:01:23;11.20;99.90
23089;DHT22;11713;48.506;8.966;2023-04-24T02:03:50;11.30;99.90
23089;DHT22;11713;48.506;8.966;2023-04-24T02:06:15;11.20;99.90
23089;DHT22;11713;48.506;8.966;2023-04-24T02:08:41;11.20;99.90
23089;DHT22;11713;48.506;8.966;2023-04-24T02:11:10;11.20;99.90
23089;DHT22;11713;48.506;8.966;2023-04-24T02:13:36;11.20;99.90
23089;DHT22;11713;48.506;8.966;2023-04-24T02:16:02;11.20;99.90
23089;DHT22;11713;48.506;8.966;2023-04-24T02:18:29;11.20;99.90
23089;DHT22;11713;48.506;8.966;2023-04-24T02:20:56;11.20;99.90
23089;DHT22;11713;48.506;8.966;2023-04-24T02:23:22;11.20;99.90
23089;DHT22;11713;48.506;8.966;2023-04-24T02:25:48;11.20;99.90
23089;DHT22;11713;48.506;8.966;2023-04-24T02:28:16;11.20;99.90
23089;DHT22;11713;48.506;8.966;2023-04-24T02:30:42;11.20;99.90
23089;DHT22;11713;48.506;8.966;2023-04-24T02:33:08;11.20;99.90
23089;DHT22;11713;48.506;8.966;2023-04-24T02:35:34;11.10;99.90
23089;DHT22;11713;48.506;8.966;2023-04-24T02:38:00;11.10;99.90
23089;DHT22;11713;48.506;8.966;2023-04-24T02:40:26;11.10;99.90
23089;DHT22;11713;48.506;8.966;2023-04-24T02:42:51;11.10;99.90
23089;DHT22;11713;48.506;8.966;2023-04-24T02:45:17;11.10;99.90
23089;DHT22;11713;48.506;8.966;2023-04-24T02:47:43;11.10;99.90
23089;DHT22;11713;48.506;8.966;2023-04-24T02:50:09;11.10;99.90
23089;DHT22;11713;48.506;8.966;2023-04-24T02:52:35;11.10;99.90
23089;DHT22;11713;48.506;8.966;2023-04-24T02:55:01;11.10;99.90
23089;DHT22;11713;48.506;8.966;2023-04-24T02:57:27;11.10;99.90
23089;DHT22;11713;48.506;8.966;2023-04-24T02:59:53;11.00;99.90
23089;DHT22;11713;48.506;8.966;2023-04-24T03:02:19;11.10;99.90
23089;DHT22;11713;48.506;8.966;2023-04-24T03:04:46;11.00;99.90
23089;DHT22;11713;48.506;8.966;2023-04-24T03:07:14;11.00;99.90
23089;DHT22;11713;48.506;8.966;2023-04-24T03:09:40;11.00;99.90
23089;DHT22;11713;48.506;8.966;2023-04-24T03:12:06;10.90;99.90
23089;DHT22;11713;48.506;8.966;2023-04-24T03:14:32;10.90;99.90
23089;DHT22;11713;48.506;8.966;2023-04-24T03:16:58;10.80;99.90
23089;DHT22;11713;48.506;8.966;2023-04-24T03:19:24;10.80;99.90
23089;DHT22;11713;48.506;8.966;2023-04-24T03:22:10;10.80;99.90
23089;DHT22;11713;48.506;8.966;2023-04-24T03:24:37;10.70;99.90
23089;DHT22;11713;48.506;8.966;2023-04-24T03:27:04;10.70;99.90
23089;DHT22;11713;48.506;8.966;2023-04-24T03:29:48;10.60;99.90
23089;DHT22;11713;48.506;8.966;2023-04-24T03:32:17;10.60;99.90
23089;DHT22;11713;48.506;8.966;2023-04-24T03:34:46;10.60;99.90
23089;DHT22;11713;48.506;8.966;2023-04-24T03:37:14;10.50;99.90
23089;DHT22;11713;48.506;8.966;2023-04-24T03:39:46;10.50;99.90
23089;DHT22;11713;48.506;8.966;2023-04-24T03:42:14;10.50;99.90
23089;DHT22;11713;48.506;8.966;2023-04-24T03:44:54;10.40;99.90
23089;DHT22;11713;48.506;8.966;2023-04-24T03:47:24;10.40;99.90
23089;DHT22;11713;48.506;8.966;2023-04-24T03:50:02;10.30;99.90
23089;DHT22;11713;48.506;8.966;2023-04-24T03:52:33;10.30;99.90
23089;DHT22;11713;48.506;8.966;2023-04-24T03:54:59;10.30;99.90
23089;DHT22;11713;48.506;8.966;2023-04-24T03:57:26;10.30;99.90
23089;DHT22;11713;48.506;8.966;2023-04-24T04:00:06;10.30;99.90
23089;DHT22;11713;48.506;8.966;2023-04-24T04:02:40;10.30;99.90
23089;DHT22;11713;48.506;8.966;2023-04-24T04:05:07;10.20;99.90
23089;DHT22;11713;48.506;8.966;2023-04-24T04:07:34;10.20;99.90
23089;DHT22;11713;48.506;8.966;2023-04-24T04:10:00;10.20;99.90
23089;DHT22;11713;48.506;8.966;2023-04-24T04:12:26;10.20;99.90
23089;DHT22;11713;48.506;8.966;2023-04-24T04:14:52;10.20;99.90
23089;DHT22;11713;48.506;8.966;2023-04-24T04:17:19;10.10;99.90
23089;DHT22;11713;48.506;8.966;2023-04-24T04:19:44;10.10;99.90
23089;DHT22;11713;48.506;8.966;2023-04-24T04:22:10;10.10;99.90
23089;DHT22;11713;48.506;8.966;2023-04-24T04:24:45;10.20;99.90
23089;DHT22;11713;48.506;8.966;2023-04-24T04:27:12;10.20;99.90
23089;DHT22;11713;48.506;8.966;2023-04-24T04:29:51;10.20;99.90
23089;DHT22;11713;48.506;8.966;2023-04-24T04:32:19;10.20;99.90
23089;DHT22;11713;48.506;8.966;2023-04-24T04:34:45;10.20;99.90
23089;DHT22;11713;48.506;8.966;2023-04-24T04:37:15;10.20;99.90
23089;DHT22;11713;48.506;8.966;2023-04-24T04:40:00;10.30;99.90
23089;DHT22;11713;48.506;8.966;2023-04-24T04:42:33;10.30;99.90
23089;DHT22;11713;48.506;8.966;2023-04-24T04:45:09;10.30;99.90
23089;DHT22;11713;48.506;8.966;2023-04-24T04:47:48;10.20;99.90
23089;DHT22;11713;48.506;8.966;2023-04-24T04:50:14;10.20;99.90
23089;DHT22;11713;48.506;8.966;2023-04-24T04:52:40;10.20;99.90
23089;DHT22;11713;48.506;8.966;2023-04-24T04:55:17;10.20;99.90
23089;DHT22;11713;48.506;8.966;2023-04-24T04:58:03;10.20;99.90
23089;DHT22;11713;48.506;8.966;2023-04-24T05:00:30;10.10;99.90
23089;DHT22;11713;48.506;8.966;2023-04-24T05:03:02;10.10;99.90
23089;DHT22;11713;48.506;8.966;2023-04-24T05:05:29;10.00;99.90
23089;DHT22;11713;48.506;8.966;2023-04-24T05:07:55;10.00;99.90
23089;DHT22;11713;48.506;8.966;2023-04-24T05:10:21;10.00;99.90
23089;DHT22;11713;48.506;8.966;2023-04-24T05:12:49;10.00;99.90
23089;DHT22;11713;48.506;8.966;2023-04-24T05:15:15;9.90;99.90
23089;DHT22;11713;48.506;8.966;2023-04-24T05:17:42;9.90;99.90
23089;DHT22;11713;48.506;8.966;2023-04-24T05:20:10;9.90;99.90
23089;DHT22;11713;48.506;8.966;2023-04-24T05:22:37;9.90;99.90
23089;DHT22;11713;48.506;8.966;2023-04-24T05:25:03;9.90;99.90
23089;DHT22;11713;48.506;8.966;2023-04-24T05:27:52;9.90;99.90
23089;DHT22;11713;48.506;8.966;2023-04-24T05:30:19;9.90;99.90
23089;DHT22;11713;48.506;8.966;2023-04-24T05:32:45;9.90;99.90
23089;DHT22;11713;48.506;8.966;2023-04-24T05:35:12;9.90;99.90
23089;DHT22;11713;48.506;8.966;2023-04-24T05:37:38;9.90;99.90
23089;DHT22;11713;48.506;8.966;2023-04-24T05:40:05;9.90;99.90
23089;DHT22;11713;48.506;8.966;2023-04-24T05:42:31;9.90;99.90
23089;DHT22;11713;48.506;8.966;2023-04-24T05:44:57;10.00;99.90
23089;DHT22;11713;48.506;8.966;2023-04-24T05:47:23;10.00;99.90
23089;DHT22;11713;48.506;8.966;2023-04-24T05:49:50;10.00;99.90
23089;DHT22;11713;48.506;8.966;2023-04-24T05:52:16;10.00;99.90
23089;DHT22;11713;48.506;8.966;2023-04-24T05:54:42;10.00;99.90
23089;DHT22;11713;48.506;8.966;2023-04-24T05:57:11;10.00;99.90
23089;DHT22;11713;48.506;8.966;2023-04-24T05:59:57;10.00;99.90
23089;DHT22;11713;48.506;8.966;2023-04-24T06:02:24;10.00;99.90
23089;DHT22;11713;48.506;8.966;2023-04-24T06:04:50;10.00;99.90
23089;DHT22;11713;48.506;8.966;2023-04-24T06:07:17;10.00;99.90
23089;DHT22;11713;48.506;8.966;2023-04-24T06:09:44;9.90;99.90
23089;DHT22;11713;48.506;8.966;2023-04-24T06:12:11;9.90;99.90
23089;DHT22;11713;48.506;8.966;2023-04-24T06:14:59;9.80;99.90
23089;DHT22;11713;48.506;8.966;2023-04-24T06:17:38;9.80;99.90
23089;DHT22;11713;48.506;8.966;2023-04-24T06:20:05;9.80;99.90
23089;DHT22;11713;48.506;8.966;2023-04-24T06:22:32;9.90;99.90
23089;DHT22;11713;48.506;8.966;2023-04-24T06:24:59;9.90;99.90
23089;DHT22;11713;48.506;8.966;2023-04-24T06:27:24;9.90;99.90
23089;DHT22;11713;48.506;8.966;2023-04-24T06:29:50;10.00;99.90
23089;DHT22;11713;48.506;8.966;2023-04-24T06:32:23;10.10;99.90
23089;DHT22;11713;48.506;8.966;2023-04-24T06:34:51;10.20;99.90
23089;DHT22;11713;48.506;8.966;2023-04-24T06:37:19;10.40;99.90
23089;DHT22;11713;48.506;8.966;2023-04-24T06:39:46;10.50;99.90
23089;DHT22;11713;48.506;8.966;2023-04-24T06:42:12;10.60;99.90
23089;DHT22;11713;48.506;8.966;2023-04-24T06:44:37;10.70;99.90
23089;DHT22;11713;48.506;8.966;2023-04-24T06:47:10;10.80;99.90
23089;DHT22;11713;48.506;8.966;2023-04-24T06:49:36;11.00;99.90
23089;DHT22;11713;48.506;8.966;2023-04-24T06:52:03;11.10;99.90
23089;DHT22;11713;48.506;8.966;2023-04-24T06:54:29;11.20;99.90
23089;DHT22;11713;48.506;8.966;2023-04-24T06:56:55;11.30;99.90
23089;DHT22;11713;48.506;8.966;2023-04-24T06:59:24;11.50;99.90
23089;DHT22;11713;48.506;8.966;2023-04-24T07:01:50;11.50;99.90
23089;DHT22;11713;48.506;8.966;2023-04-24T07:04:17;11.60;99.90
23089;DHT22;11713;48.506;8.966;2023-04-24T07:06:43;11.60;99.90
23089;DHT22;11713;48.506;8.966;2023-04-24T07:09:11;11.50;99.90
23089;DHT22;11713;48.506;8.966;2023-04-24T07:11:37;11.50;99.90
23089;DHT22;11713;48.506;8.966;2023-04-24T07:14:04;11.40;99.90
23089;DHT22;11713;48.506;8.966;2023-04-24T07:16:31;11.30;99.90
23089;DHT22;11713;48.506;8.966;2023-04-24T07:18:57;11.30;99.90
23089;DHT22;11713;48.506;8.966;2023-04-24T07:21:24;11.30;99.90
23089;DHT22;11713;48.506;8.966;2023-04-24T07:23:59;11.20;99.90
23089;DHT22;11713;48.506;8.966;2023-04-24T07:26:26;11.20;99.90
23089;DHT22;11713;48.506;8.966;2023-04-24T07:28:52;11.20;99.90
23089;DHT22;11713;48.506;8.966;2023-04-24T07:31:18;11.40;99.90
23089;DHT22;11713;48.506;8.966;2023-04-24T07:33:46;11.50;99.90
23089;DHT22;11713;48.506;8.966;2023-04-24T07:36:14;11.50;99.90
23089;DHT22;11713;48.506;8.966;2023-04-24T07:38:48;11.60;99.90
23089;DHT22;11713;48.506;8.966;2023-04-24T07:41:14;11.80;99.90
23089;DHT22;11713;48.506;8.966;2023-04-24T07:43:40;11.70;99.90
23089;DHT22;11713;48.506;8.966;2023-04-24T07:46:08;11.80;99.90
23089;DHT22;11713;48.506;8.966;2023-04-24T07:48:34;11.80;99.90
23089;DHT22;11713;48.506;8.966;2023-04-24T07:51:01;11.80;99.90
23089;DHT22;11713;48.506;8.966;2023-04-24T07:53:27;11.70;99.90
23089;DHT22;11713;48.506;8.966;2023-04-24T07:55:55;11.60;99.90
23089;DHT22;11713;48.506;8.966;2023-04-24T07:58:21;11.60;99.90
23089;DHT22;11713;48.506;8.966;2023-04-24T08:00:47;11.70;99.90
23089;DHT22;11713;48.506;8.966;2023-04-24T08:03:14;11.70;99.90
23089;DHT22;11713;48.506;8.966;2023-04-24T08:05:41;11.70;99.90
23089;DHT22;11713;48.506;8.966;2023-04-24T08:08:07;11.70;99.90
23089;DHT22;11713;48.506;8.966;2023-04-24T08:10:33;11.60;99.90
23089;DHT22;11713;48.506;8.966;2023-04-24T08:12:59;11.60;99.90
23089;DHT22;11713;48.506;8.966;2023-04-24T08:15:25;11.50;99.90
23089;DHT22;11713;48.506;8.966;2023-04-24T08:17:51;11.50;99.90
23089;DHT22;11713;48.506;8.966;2023-04-24T08:20:17;11.60;99.90
23089;DHT22;11713;48.506;8.966;2023-04-24T08:22:43;11.70;99.90
23089;DHT22;11713;48.506;8.966;2023-04-24T08:25:10;11.90;99.90
23089;DHT22;11713;48.506;8.966;2023-04-24T08:27:36;11.90;99.90
23089;DHT22;11713;48.506;8.966;2023-04-24T08:30:03;11.90;99.90
23089;DHT22;11713;48.506;8.966;2023-04-24T08:32:29;11.80;99.90
23089;DHT22;11713;48.506;8.966;2023-04-24T08:34:59;11.80;99.90
23089;DHT22;11713;48.506;8.966;2023-04-24T08:37:26;11.80;99.90
23089;DHT22;11713;48.506;8.966;2023-04-24T08:39:53;12.10;99.90
23089;DHT22;11713;48.506;8.966;2023-04-24T08:42:19;12.20;99.90
23089;DHT22;11713;48.506;8.966;2023-04-24T08:44:46;12.30;99.90
23089;DHT22;11713;48.506;8.966;2023-04-24T08:47:15;12.60;99.90
23089;DHT22;11713;48.506;8.966;2023-04-24T08:49:41;12.90;99.90
23089;DHT22;11713;48.506;8.966;2023-04-24T08:52:08;13.10;99.90
23089;DHT22;11713;48.506;8.966;2023-04-24T08:54:35;13.00;99.90
23089;DHT22;11713;48.506;8.966;2023-04-24T08:57:02;12.80;99.90
23089;DHT22;11713;48.506;8.966;2023-04-24T08:59:30;12.50;99.90
23089;DHT22;11713;48.506;8.966;2023-04-24T09:01:57;12.40;99.90
23089;DHT22;11713;48.506;8.966;2023-04-24T09:04:23;12.60;99.90
23089;DHT22;11713;48.506;8.966;2023-04-24T09:06:56;12.90;99.90
23089;DHT22;11713;48.506;8.966;2023-04-24T09:09:24;13.10;99.90
23089;DHT22;11713;48.506;8.966;2023-04-24T09:11:51;13.30;99.90
23089;DHT22;11713;48.506;8.966;2023-04-24T09:14:19;13.10;99.90
23089;DHT22;11713;48.506;8.966;2023-04-24T09:16:46;13.20;99.90
23089;DHT22;11713;48.506;8.966;2023-04-24T09:19:12;13.10;99.90
23089;DHT22;11713;48.506;8.966;2023-04-24T09:21:38;13.10;99.90
23089;DHT22;11713;48.506;8.966;2023-04-24T09:24:07;12.90;99.90
23089;DHT22;11713;48.506;8.966;2023-04-24T09:26:35;12.60;99.90
23089;DHT22;11713;48.506;8.966;2023-04-24T09:29:03;12.50;99.90
23089;DHT22;11713;48.506;8.966;2023-04-24T09:31:29;12.40;99.90
23089;DHT22;11713;48.506;8.966;2023-04-24T09:36:38;12.60;99.90
23089;DHT22;11713;48.506;8.966;2023-04-24T09:39:06;12.60;99.90
23089;DHT22;11713;48.506;8.966;2023-04-24T09:41:33;12.50;99.90
23089;DHT22;11713;48.506;8.966;2023-04-24T09:44:19;12.50;99.90
23089;DHT22;11713;48.506;8.966;2023-04-24T09:46:52;12.40;99.90
23089;DHT22;11713;48.506;8.966;2023-04-24T09:49:27;12.50;99.90
23089;DHT22;11713;48.506;8.966;2023-04-24T09:52:06;12.30;99.90
23089;DHT22;11713;48.506;8.966;2023-04-24T09:54:33;12.10;99.90
23089;DHT22;11713;48.506;8.966;2023-04-24T09:56:59;12.20;99.90
23089;DHT22;11713;48.506;8.966;2023-04-24T09:59:27;12.50;99.90
23089;DHT22;11713;48.506;8.966;2023-04-24T10:01:55;12.80;99.90
23089;DHT22;11713;48.506;8.966;2023-04-24T10:04:28;13.00;99.90
23089;DHT22;11713;48.506;8.966;2023-04-24T10:06:55;13.00;99.90
23089;DHT22;11713;48.506;8.966;2023-04-24T10:09:24;13.20;99.90
23089;DHT22;11713;48.506;8.966;2023-04-24T10:11:51;13.50;99.90
23089;DHT22;11713;48.506;8.966;2023-04-24T10:14:22;13.80;99.90
23089;DHT22;11713;48.506;8.966;2023-04-24T10:16:49;13.90;99.90
23089;DHT22;11713;48.506;8.966;2023-04-24T10:19:16;13.80;99.90
23089;DHT22;11713;48.506;8.966;2023-04-24T10:21:44;13.80;99.90
23089;DHT22;11713;48.506;8.966;2023-04-24T10:24:18;13.50;99.90
23089;DHT22;11713;48.506;8.966;2023-04-24T10:26:46;13.30;99.90
23089;DHT22;11713;48.506;8.966;2023-04-24T10:29:15;13.20;99.90
23089;DHT22;11713;48.506;8.966;2023-04-24T10:31:41;13.10;99.90
23089;DHT22;11713;48.506;8.966;2023-04-24T10:34:09;13.00;99.90
23089;DHT22;11713;48.506;8.966;2023-04-24T10:36:38;12.90;99.90
23089;DHT22;11713;48.506;8.966;2023-04-24T10:39:08;13.00;99.90
23089;DHT22;11713;48.506;8.966;2023-04-24T10:41:37;13.00;99.90
23089;DHT22;11713;48.506;8.966;2023-04-24T10:44:07;13.00;99.90
23089;DHT22;11713;48.506;8.966;2023-04-24T10:46:34;12.90;99.90
23089;DHT22;11713;48.506;8.966;2023-04-24T10:49:04;12.90;99.90
23089;DHT22;11713;48.506;8.966;2023-04-24T10:51:52;12.70;99.90
23089;DHT22;11713;48.506;8.966;2023-04-24T10:54:33;12.50;99.90
23089;DHT22;11713;48.506;8.966;2023-04-24T10:59:45;12.50;99.90
23089;DHT22;11713;48.506;8.966;2023-04-24T11:02:16;12.30;99.90
23089;DHT22;11713;48.506;8.966;2023-04-24T11:04:44;12.50;99.90
23089;DHT22;11713;48.506;8.966;2023-04-24T11:07:11;12.60;99.90
23089;DHT22;11713;48.506;8.966;2023-04-24T11:09:38;12.60;99.90
23089;DHT22;11713;48.506;8.966;2023-04-24T11:12:07;12.90;99.90
23089;DHT22;11713;48.506;8.966;2023-04-24T11:17:38;13.20;99.90
23089;DHT22;11713;48.506;8.966;2023-04-24T11:20:11;13.00;99.90
23089;DHT22;11713;48.506;8.966;2023-04-24T11:22:38;12.80;99.90
23089;DHT22;11713;48.506;8.966;2023-04-24T11:25:09;12.70;99.90
23089;DHT22;11713;48.506;8.966;2023-04-24T11:27:42;12.60;99.90
23089;DHT22;11713;48.506;8.966;2023-04-24T11:30:09;12.40;99.90
23089;DHT22;11713;48.506;8.966;2023-04-24T11:35:17;12.20;99.90
23089;DHT22;11713;48.506;8.966;2023-04-24T11:37:50;12.20;99.90
23089;DHT22;11713;48.506;8.966;2023-04-24T11:40:18;12.20;99.90
23089;DHT22;11713;48.506;8.966;2023-04-24T11:42:52;12.20;99.90
23089;DHT22;11713;48.506;8.966;2023-04-24T11:45:23;12.20;99.90
23089;DHT22;11713;48.506;8.966;2023-04-24T11:47:49;12.10;99.90
23089;DHT22;11713;48.506;8.966;2023-04-24T11:50:19;12.00;99.90
23089;DHT22;11713;48.506;8.966;2023-04-24T11:52:47;12.00;99.90
23089;DHT22;11713;48.506;8.966;2023-04-24T11:57:46;12.10;99.90
23089;DHT22;11713;48.506;8.966;2023-04-24T12:00:21;12.10;99.90
23089;DHT22;11713;48.506;8.966;2023-04-24T12:02:47;12.10;99.90
23089;DHT22;11713;48.506;8.966;2023-04-24T12:05:26;12.00;99.90
23089;DHT22;11713;48.506;8.966;2023-04-24T12:07:53;11.70;99.90
23089;DHT22;11713;48.506;8.966;2023-04-24T12:10:23;11.80;99.90
23089;DHT22;11713;48.506;8.966;2023-04-24T12:12:50;11.70;99.90
23089;DHT22;11713;48.506;8.966;2023-04-24T12:15:17;11.80;99.90
23089;DHT22;11713;48.506;8.966;2023-04-24T12:17:44;11.70;99.90
23089;DHT22;11713;48.506;8.966;2023-04-24T12:20:11;11.70;99.90
23089;DHT22;11713;48.506;8.966;2023-04-24T12:22:53;11.70;99.90
23089;DHT22;11713;48.506;8.966;2023-04-24T12:25:21;11.60;99.90
23089;DHT22;11713;48.506;8.966;2023-04-24T12:27:53;11.50;99.90
23089;DHT22;11713;48.506;8.966;2023-04-24T12:30:20;11.50;99.90
23089;DHT22;11713;48.506;8.966;2023-04-24T12:32:50;11.50;99.90
23089;DHT22;11713;48.506;8.966;2023-04-24T12:35:22;11.30;99.90
23089;DHT22;11713;48.506;8.966;2023-04-24T12:37:48;11.20;99.90
23089;DHT22;11713;48.506;8.966;2023-04-24T12:40:14;11.20;99.90
23089;DHT22;11713;48.506;8.966;2023-04-24T12:42:48;11.30;99.90
23089;DHT22;11713;48.506;8.966;2023-04-24T12:45:16;11.30;99.90
23089;DHT22;11713;48.506;8.966;2023-04-24T12:47:43;11.40;99.90
23089;DHT22;11713;48.506;8.966;2023-04-24T12:50:13;11.60;99.90
23089;DHT22;11713;48.506;8.966;2023-04-24T12:52:40;11.70;99.90
23089;DHT22;11713;48.506;8.966;2023-04-24T12:55:07;11.90;99.90
23089;DHT22;11713;48.506;8.966;2023-04-24T12:57:34;12.10;99.90
23089;DHT22;11713;48.506;8.966;2023-04-24T13:00:01;12.60;99.90
23089;DHT22;11713;48.506;8.966;2023-04-24T13:02:28;12.80;99.90
23089;DHT22;11713;48.506;8.966;2023-04-24T13:04:55;13.20;99.90
23089;DHT22;11713;48.506;8.966;2023-04-24T13:07:21;13.40;99.90
23089;DHT22;11713;48.506;8.966;2023-04-24T13:09:48;13.40;99.90
23089;DHT22;11713;48.506;8.966;2023-04-24T13:12:14;13.10;99.90
23089;DHT22;11713;48.506;8.966;2023-04-24T13:14:41;13.00;99.90
23089;DHT22;11713;48.506;8.966;2023-04-24T13:17:07;12.90;99.90
23089;DHT22;11713;48.506;8.966;2023-04-24T13:19:38;12.80;99.90
23089;DHT22;11713;48.506;8.966;2023-04-24T13:22:04;12.60;99.90
23089;DHT22;11713;48.506;8.966;2023-04-24T13:24:32;12.50;99.90
23089;DHT22;11713;48.506;8.966;2023-04-24T13:26:58;12.30;99.90
23089;DHT22;11713;48.506;8.966;2023-04-24T13:29:25;12.30;99.90
23089;DHT22;11713;48.506;8.966;2023-04-24T13:31:53;12.40;99.90
23089;DHT22;11713;48.506;8.966;2023-04-24T13:34:24;12.40;99.90
23089;DHT22;11713;48.506;8.966;2023-04-24T13:36:54;12.40;99.90
23089;DHT22;11713;48.506;8.966;2023-04-24T13:39:21;12.40;99.90
23089;DHT22;11713;48.506;8.966;2023-04-24T13:41:47;12.40;99.90
23089;DHT22;11713;48.506;8.966;2023-04-24T13:44:14;12.40;99.90
23089;DHT22;11713;48.506;8.966;2023-04-24T13:46:41;12.50;99.90
23089;DHT22;11713;48.506;8.966;2023-04-24T13:49:07;12.50;99.90
23089;DHT22;11713;48.506;8.966;2023-04-24T13:51:32;12.60;99.90
23089;DHT22;11713;48.506;8.966;2023-04-24T13:53:58;12.50;99.90
23089;DHT22;11713;48.506;8.966;2023-04-24T13:56:26;12.50;99.90
23089;DHT22;11713;48.506;8.966;2023-04-24T13:58:51;12.30;99.90
23089;DHT22;11713;48.506;8.966;2023-04-24T14:01:19;12.30;99.90
23089;DHT22;11713;48.506;8.966;2023-04-24T14:03:46;12.20;99.90
23089;DHT22;11713;48.506;8.966;2023-04-24T14:06:12;12.20;99.90
23089;DHT22;11713;48.506;8.966;2023-04-24T14:08:37;12.10;99.90
23089;DHT22;11713;48.506;8.966;2023-04-24T14:11:04;11.90;99.90
23089;DHT22;11713;48.506;8.966;2023-04-24T14:13:30;11.90;99.90
23089;DHT22;11713;48.506;8.966;2023-04-24T14:15:55;11.90;99.90
23089;DHT22;11713;48.506;8.966;2023-04-24T14:18:21;11.80;99.90
23089;DHT22;11713;48.506;8.966;2023-04-24T14:20:47;11.90;99.90
23089;DHT22;11713;48.506;8.966;2023-04-24T14:23:13;11.90;99.90
23089;DHT22;11713;48.506;8.966;2023-04-24T14:25:39;11.90;99.90
23089;DHT22;11713;48.506;8.966;2023-04-24T14:28:05;11.90;99.90
23089;DHT22;11713;48.506;8.966;2023-04-24T14:30:31;11.90;99.90
23089;DHT22;11713;48.506;8.966;2023-04-24T14:32:57;11.90;99.90
23089;DHT22;11713;48.506;8.966;2023-04-24T14:35:23;11.80;99.90
23089;DHT22;11713;48.506;8.966;2023-04-24T14:37:49;11.80;99.90
23089;DHT22;11713;48.506;8.966;2023-04-24T14:40:15;11.80;99.90
23089;DHT22;11713;48.506;8.966;2023-04-24T14:42:41;11.80;99.90
23089;DHT22;11713;48.506;8.966;2023-04-24T14:45:07;11.90;99.90
23089;DHT22;11713;48.506;8.966;2023-04-24T14:47:36;11.90;99.90
23089;DHT22;11713;48.506;8.966;2023-04-24T14:50:03;11.90;99.90
23089;DHT22;11713;48.506;8.966;2023-04-24T14:52:29;11.80;99.90
23089;DHT22;11713;48.506;8.966;2023-04-24T14:54:55;11.80;99.90
23089;DHT22;11713;48.506;8.966;2023-04-24T14:57:22;11.80;99.90
23089;DHT22;11713;48.506;8.966;2023-04-24T14:59:47;11.90;99.90
23089;DHT22;11713;48.506;8.966;2023-04-24T15:02:13;11.90;99.90
23089;DHT22;11713;48.506;8.966;2023-04-24T15:04:39;12.00;99.90
23089;DHT22;11713;48.506;8.966;2023-04-24T15:07:05;11.90;99.90
23089;DHT22;11713;48.506;8.966;2023-04-24T15:09:31;12.00;99.90
23089;DHT22;11713;48.506;8.966;2023-04-24T15:11:58;12.00;99.90
23089;DHT22;11713;48.506;8.966;2023-04-24T15:14:24;12.00;99.90
23089;DHT22;11713;48.506;8.966;2023-04-24T15:16:49;12.00;99.90
23089;DHT22;11713;48.506;8.966;2023-04-24T15:19:15;12.00;99.90
23089;DHT22;11713;48.506;8.966;2023-04-24T15:21:41;12.00;99.90
23089;DHT22;11713;48.506;8.966;2023-04-24T15:24:08;12.00;99.90
23089;DHT22;11713;48.506;8.966;2023-04-24T15:26:35;12.00;99.90
23089;DHT22;11713;48.506;8.966;2023-04-24T15:29:02;12.00;99.90
23089;DHT22;11713;48.506;8.966;2023-04-24T15:31:28;12.10;99.90
23089;DHT22;11713;48.506;8.966;2023-04-24T15:33:55;12.20;99.90
23089;DHT22;11713;48.506;8.966;2023-04-24T15:36:21;12.20;99.90
23089;DHT22;11713;48.506;8.966;2023-04-24T15:38:48;12.30;99.90
23089;DHT22;11713;48.506;8.966;2023-04-24T15:41:15;12.40;99.90
23089;DHT22;11713;48.506;8.966;2023-04-24T15:43:41;12.40;99.90
23089;DHT22;11713;48.506;8.966;2023-04-24T15:46:09;12.50;99.90
23089;DHT22;11713;48.506;8.966;2023-04-24T15:48:35;12.50;99.90
23089;DHT22;11713;48.506;8.966;2023-04-24T15:51:01;12.60;99.90
23089;DHT22;11713;48.506;8.966;2023-04-24T15:53:27;12.60;99.90